Time;durP1;ratioP1;P1;durP2;ratioP2;P2;SDS_P1;SDS_P2;PMS_P1;PMS_P2;Temp;Humidity;BMP_temperature;BMP_pressure;BME280_temperature;BME280_humidity;BME280_pressure;Samples;Min_cycle;Max_cycle;Signal;HPM_P1;HPM_P2
2022/01/17 00:01:37;;;;;;;14.87;4.83;;;;;;;7.33;70.48;101780.53;5082099;28;20181;-70
2022/01/17 00:04:02;;;;;;;13.23;5.37;;;;;;;7.34;70.39;101765.03;5064095;28;20195;-69
2022/01/17 00:06:28;;;;;;;15.33;4.50;;;;;;;7.10;71.31;101764.94;5081533;28;20795;-70
2022/01/17 00:08:53;;;;;;;8.97;4.17;;;;;;;7.10;70.74;101761.47;5064551;28;20194;-71
2022/01/17 00:11:19;;;;;;;11.40;4.70;;;;;;;7.38;69.60;101755.66;5081466;28;20447;-71
2022/01/17 00:13:46;;;;;;;12.77;4.70;;;;;;;7.29;70.02;101769.13;5081288;28;20169;-72
2022/01/17 00:16:16;;;;;;;16.00;6.80;;;;;;;7.03;70.40;101749.97;5064575;28;20551;-72
2022/01/17 00:21:10;;;;;;;20.50;5.77;;;;;;;7.36;68.90;101742.63;5081224;28;20829;-71
2022/01/17 00:23:36;;;;;;;7.53;3.80;;;;;;;6.99;69.54;101738.56;5081555;28;20502;-72
2022/01/17 00:26:01;;;;;;;14.23;4.67;;;;;;;7.28;68.89;101731.06;5081295;28;20272;-70
2022/01/17 00:28:27;;;;;;;13.50;4.10;;;;;;;7.05;68.77;101718.09;5081291;28;20164;-72
2022/01/17 00:30:52;;;;;;;10.80;4.70;;;;;;;7.22;68.84;101723.91;5081549;28;20227;-71
2022/01/17 00:33:18;;;;;;;10.53;4.20;;;;;;;6.75;69.29;101707.34;5080892;28;20180;-71
2022/01/17 00:35:43;;;;;;;11.87;4.00;;;;;;;7.11;68.64;101722.63;5096975;28;20257;-70
2022/01/17 00:38:11;;;;;;;21.70;4.60;;;;;;;7.25;68.57;101716.28;5101837;28;20196;-71
2022/01/17 00:40:36;;;;;;;13.93;5.00;;;;;;;6.82;68.81;101711.06;5101350;28;20434;-71
2022/01/17 00:43:02;;;;;;;14.23;4.47;;;;;;;7.11;68.18;101706.19;5101111;28;20411;-72
2022/01/17 00:45:29;;;;;;;13.73;4.63;;;;;;;7.05;68.50;101715.50;5101633;28;20165;-69
2022/01/17 00:47:55;;;;;;;10.90;4.00;;;;;;;7.06;68.59;101722.44;5100899;28;20179;-70
2022/01/17 00:50:22;;;;;;;12.93;4.20;;;;;;;6.85;68.91;101706.91;5101030;28;20393;-71
2022/01/17 00:52:47;;;;;;;12.63;4.17;;;;;;;6.96;68.56;101699.56;5100729;28;20455;-72
2022/01/17 00:55:13;;;;;;;12.33;4.27;;;;;;;7.10;68.26;101702.69;5100795;28;20451;-71
2022/01/17 00:57:40;;;;;;;17.33;5.50;;;;;;;7.09;68.60;101713.91;5101211;28;20172;-70
2022/01/17 01:00:06;;;;;;;8.50;4.10;;;;;;;7.37;67.59;101721.06;5100886;28;20179;-72
2022/01/17 01:02:32;;;;;;;11.20;4.60;;;;;;;7.25;67.60;101720.56;5100505;28;20461;-70
2022/01/17 01:04:57;;;;;;;18.80;4.70;;;;;;;7.11;68.23;101737.31;5101101;28;20441;-70
2022/01/17 01:07:22;;;;;;;14.80;4.37;;;;;;;7.29;67.94;101727.63;5082900;28;20172;-72
2022/01/17 01:10:00;;;;;;;5.27;3.70;;;;;;;8.05;66.90;101726.16;5100547;28;20535;-72
2022/01/17 01:12:25;;;;;;;22.13;4.97;;;;;;;7.41;67.00;101712.56;5100527;28;20220;-70
2022/01/17 01:14:51;;;;;;;11.47;4.00;;;;;;;7.74;66.51;101708.59;5100097;28;20934;-70
2022/01/17 01:17:31;;;;;;;8.53;4.10;;;;;;;7.85;66.05;101724.56;5083158;28;20506;-70
2022/01/17 01:20:08;;;;;;;10.23;4.57;;;;;;;7.41;67.19;101717.75;5100386;28;20176;-71
2022/01/17 01:28:04;;;;;;;14.40;4.00;;;;;;;7.78;67.15;101727.75;5100292;28;20417;-74
2022/01/17 01:30:30;;;;;;;11.80;3.80;;;;;;;7.71;67.75;101734.41;5100213;28;20418;-73
2022/01/17 01:32:58;;;;;;;12.00;5.77;;;;;;;7.79;66.21;101713.94;5100220;28;20442;-72
2022/01/17 01:35:26;;;;;;;20.03;4.57;;;;;;;7.28;67.10;101710.31;5087021;28;20512;-71
2022/01/17 01:37:51;;;;;;;15.10;4.50;;;;;;;7.74;66.01;101695.63;5079984;28;20445;-74
2022/01/17 01:40:17;;;;;;;14.57;4.80;;;;;;;7.87;66.34;101707.31;5080929;28;20386;-72
2022/01/17 01:42:44;;;;;;;14.87;4.47;;;;;;;7.68;66.83;101716.13;5083448;28;20260;-70
2022/01/17 01:45:12;;;;;;;11.60;4.20;;;;;;;7.65;67.12;101706.53;5064971;28;20481;-69
2022/01/17 01:47:38;;;;;;;16.23;3.90;;;;;;;7.79;66.25;101695.78;5062917;28;20415;-70
2022/01/17 01:50:04;;;;;;;16.33;5.73;;;;;;;7.60;66.57;101689.88;5080303;28;20386;-69
2022/01/17 01:52:29;;;;;;;16.60;5.17;;;;;;;7.88;65.72;101685.72;5079392;28;20532;-69
2022/01/17 01:54:54;;;;;;;14.63;4.50;;;;;;;7.89;66.55;101684.91;5079632;28;20907;-70
2022/01/17 01:57:20;;;;;;;10.77;4.37;;;;;;;7.83;66.54;101685.53;5079896;28;20227;-70
2022/01/17 01:59:45;;;;;;;11.03;4.20;;;;;;;7.71;66.84;101691.19;5080055;28;20173;-70
2022/01/17 02:02:10;;;;;;;11.63;4.90;;;;;;;7.58;67.43;101695.03;5079864;28;20176;-69
2022/01/17 02:04:36;;;;;;;20.53;5.23;;;;;;;7.70;67.49;101688.53;5079703;28;20181;-70
2022/01/17 02:07:01;;;;;;;24.67;5.57;;;;;;;7.79;67.12;101695.78;5079275;28;20192;-71
2022/01/17 02:09:26;;;;;;;20.80;5.20;;;;;;;7.92;66.43;101697.97;5061908;28;20248;-70
2022/01/17 02:11:53;;;;;;;16.93;5.13;;;;;;;7.93;66.92;101697.16;5062187;28;20177;-69
2022/01/17 02:14:18;;;;;;;11.70;5.27;;;;;;;7.76;67.30;101689.63;5078938;28;20445;-74
2022/01/17 02:16:46;;;;;;;11.97;4.27;;;;;;;7.70;67.33;101699.78;5079304;28;20426;-71
2022/01/17 02:19:12;;;;;;;14.93;4.43;;;;;;;7.37;68.73;101695.13;5079628;28;20249;-71
2022/01/17 02:21:46;;;;;;;11.00;4.10;;;;;;;7.50;68.25;101674.81;5079300;28;20714;-73
2022/01/17 02:24:14;;;;;;;15.70;5.57;;;;;;;7.64;68.51;101683.13;5087966;28;20450;-71
2022/01/17 02:26:39;;;;;;;13.10;5.10;;;;;;;9.15;69.31;101679.56;5085918;28;20784;-60
2022/01/17 02:29:06;;;;;;;20.03;4.80;;;;;;;8.84;66.42;101675.97;5079047;28;20192;-59
2022/01/17 02:31:31;;;;;;;11.47;4.33;;;;;;;8.73;65.27;101678.25;5079281;28;20164;-68
2022/01/17 02:33:57;;;;;;;11.40;4.43;;;;;;;8.14;66.48;101678.84;5078809;28;20413;-69
2022/01/17 02:36:22;;;;;;;12.00;4.23;;;;;;;7.55;68.32;101684.53;5078878;28;20257;-69
2022/01/17 02:38:48;;;;;;;16.20;4.53;;;;;;;7.76;68.53;101676.66;5079585;28;20259;-69
2022/01/17 02:41:13;;;;;;;18.70;5.13;;;;;;;7.86;68.74;101658.81;5079511;28;20165;-67
2022/01/17 02:43:40;;;;;;;13.83;4.30;;;;;;;7.88;70.83;101667.53;5078424;28;20251;-68
2022/01/17 02:48:36;;;;;;;19.90;6.20;;;;;;;8.26;68.10;101650.69;5078615;28;20421;-69
2022/01/17 02:51:02;;;;;;;14.17;4.93;;;;;;;7.85;68.10;101651.88;5078552;28;20260;-69
2022/01/17 02:53:27;;;;;;;13.80;4.23;;;;;;;7.94;69.17;101641.78;5098317;28;20714;-69
2022/01/17 02:56:02;;;;;;;15.37;4.87;;;;;;;7.74;69.45;101667.94;5098444;28;20454;-69
2022/01/17 02:58:28;;;;;;;15.47;5.03;;;;;;;7.94;69.60;101636.59;5098573;28;20499;-69
2022/01/17 03:00:56;;;;;;;12.07;5.00;;;;;;;7.59;69.64;101634.53;5098554;28;20430;-69
2022/01/17 03:03:23;;;;;;;11.33;4.50;;;;;;;7.76;69.92;101632.50;5098417;28;20406;-69
2022/01/17 03:05:49;;;;;;;12.30;4.20;;;;;;;7.96;69.63;101626.28;5098825;28;20389;-68
2022/01/17 03:08:20;;;;;;;8.97;4.10;;;;;;;8.14;68.03;101641.59;5098215;28;20475;-69
2022/01/17 03:10:49;;;;;;;16.50;4.50;;;;;;;7.65;69.84;101633.84;5098181;28;20164;-68
2022/01/17 03:13:17;;;;;;;11.50;4.60;;;;;;;8.21;68.81;101634.09;5098218;28;20453;-69
2022/01/17 03:15:44;;;;;;;18.50;5.60;;;;;;;7.45;70.16;101634.84;5098074;28;20553;-69
2022/01/17 03:18:10;;;;;;;14.03;5.10;;;;;;;8.23;68.23;101636.72;5098639;28;20410;-69
2022/01/17 03:20:37;;;;;;;14.50;5.00;;;;;;;7.93;69.15;101643.50;5098291;28;20400;-70
2022/01/17 03:23:06;;;;;;;20.53;4.97;;;;;;;7.74;70.00;101644.56;5098140;28;20176;-70
2022/01/17 03:25:31;;;;;;;12.47;4.70;;;;;;;8.00;69.53;101636.81;5098806;28;20442;-69
2022/01/17 03:27:57;;;;;;;14.37;4.40;;;;;;;7.52;70.27;101616.06;5098188;28;20418;-70
2022/01/17 03:30:22;;;;;;;15.80;4.53;;;;;;;7.56;70.47;101641.31;5080744;28;20172;-69
2022/01/17 03:32:48;;;;;;;13.43;4.73;;;;;;;7.84;70.50;101625.00;5080872;28;20164;-69
2022/01/17 03:35:14;;;;;;;14.77;5.00;;;;;;;8.07;68.26;101619.72;5098088;28;20275;-69
2022/01/17 03:37:40;;;;;;;13.83;4.60;;;;;;;8.09;68.99;101626.75;5098166;28;20526;-69
2022/01/17 03:40:06;;;;;;;9.23;4.00;;;;;;;7.77;69.46;101636.00;5098540;28;20396;-69
2022/01/17 03:42:31;;;;;;;15.77;5.13;;;;;;;8.05;69.22;101637.88;5097876;28;20172;-69
2022/01/17 03:44:57;;;;;;;12.03;4.40;;;;;;;7.95;69.20;101638.38;5097921;28;20453;-69
2022/01/17 03:47:22;;;;;;;10.73;4.23;;;;;;;7.65;69.85;101653.75;5098670;28;20168;-70
2022/01/17 03:49:47;;;;;;;13.70;4.53;;;;;;;7.77;68.94;101651.59;5098047;28;20172;-69
2022/01/17 03:52:13;;;;;;;16.73;4.70;;;;;;;8.05;68.89;101645.66;5097796;28;20612;-69
2022/01/17 03:54:38;;;;;;;13.67;4.37;;;;;;;7.97;68.80;101648.78;5098303;28;20211;-71
2022/01/17 03:57:03;;;;;;;13.53;4.50;;;;;;;7.50;69.99;101648.88;5097976;28;20244;-69
2022/01/17 03:59:29;;;;;;;11.50;4.20;;;;;;;7.53;70.82;101636.00;5081063;28;20168;-68
2022/01/17 04:01:54;;;;;;;14.90;4.87;;;;;;;8.12;68.42;101646.75;5098417;28;20306;-69
2022/01/17 04:04:20;;;;;;;11.30;4.30;;;;;;;7.79;69.82;101642.13;5097827;28;20177;-69
2022/01/17 04:06:45;;;;;;;16.30;4.77;;;;;;;8.16;70.13;101637.31;5098055;28;20222;-69
2022/01/17 04:09:10;;;;;;;12.37;4.33;;;;;;;8.07;69.13;101635.31;5098368;28;20169;-69
2022/01/17 04:11:36;;;;;;;13.63;3.87;;;;;;;7.45;70.78;101648.69;5097766;28;20263;-69
2022/01/17 04:14:03;;;;;;;13.80;4.47;;;;;;;7.61;70.37;101639.75;5097489;28;20195;-69
2022/01/17 04:16:28;;;;;;;12.33;4.53;;;;;;;8.06;69.02;101625.75;5098353;28;20438;-69
2022/01/17 04:18:55;;;;;;;11.90;4.40;;;;;;;7.92;70.35;101627.88;5097760;28;20696;-69
2022/01/17 04:21:20;;;;;;;15.07;4.47;;;;;;;7.64;70.45;101621.69;5100483;28;20172;-70
2022/01/17 04:23:46;;;;;;;9.43;4.67;;;;;;;7.70;70.25;101614.16;5101924;28;20867;-70
2022/01/17 04:26:11;;;;;;;11.83;4.27;;;;;;;8.14;69.46;101607.84;5101894;28;20433;-70
2022/01/17 04:28:36;;;;;;;13.03;4.37;;;;;;;8.36;68.94;101625.91;5101365;28;20179;-70
2022/01/17 04:31:01;;;;;;;8.73;3.73;;;;;;;7.75;70.12;101632.47;5102189;28;20161;-70
2022/01/17 04:33:27;;;;;;;12.40;4.43;;;;;;;7.81;70.81;101640.47;5101270;28;20172;-70
2022/01/17 04:35:52;;;;;;;24.40;6.90;;;;;;;7.77;70.26;101610.06;5101344;28;20200;-70
2022/01/17 04:38:19;;;;;;;10.33;4.93;;;;;;;7.94;70.01;101626.19;5101796;28;20164;-69
2022/01/17 04:40:49;;;;;;;11.73;4.90;;;;;;;8.00;70.00;101634.22;5101258;28;20197;-70
2022/01/17 04:43:32;;;;;;;14.40;4.80;;;;;;;7.88;70.06;101631.19;5101884;28;20392;-70
2022/01/17 04:45:57;;;;;;;11.67;3.90;;;;;;;7.78;71.11;101608.34;5103292;28;20857;-70
2022/01/17 04:48:23;;;;;;;15.20;4.17;;;;;;;8.21;70.79;101620.19;5102769;28;20407;-69
2022/01/17 04:50:48;;;;;;;13.90;5.20;;;;;;;7.73;71.58;101635.00;5102227;28;20168;-69
2022/01/17 04:53:17;;;;;;;11.20;4.80;;;;;;;7.91;71.58;101640.00;5101035;28;20677;-69
2022/01/17 04:55:43;;;;;;;18.80;5.47;;;;;;;7.87;70.96;101639.81;5101288;28;20211;-69
2022/01/17 04:58:08;;;;;;;15.00;4.50;;;;;;;7.94;72.48;101636.59;5083447;28;20381;-70
2022/01/17 05:00:33;;;;;;;12.80;6.10;;;;;;;7.99;73.24;101628.97;5100941;28;20431;-70
2022/01/17 05:02:58;;;;;;;16.10;4.60;;;;;;;7.74;74.12;101617.75;5101369;28;20247;-69
2022/01/17 05:05:24;;;;;;;16.83;5.40;;;;;;;8.47;71.35;101617.59;5100769;28;20256;-69
2022/01/17 05:07:49;;;;;;;13.13;4.30;;;;;;;7.83;73.19;101592.09;5100773;28;20272;-69
2022/01/17 05:10:16;;;;;;;12.07;5.40;;;;;;;7.99;72.15;101597.81;5101091;28;20168;-69
2022/01/17 05:12:43;;;;;;;13.63;5.30;;;;;;;7.86;73.32;101591.31;5100914;28;20210;-69
2022/01/17 05:15:18;;;;;;;10.03;4.60;;;;;;;8.07;72.34;101588.56;5100534;28;20436;-68
2022/01/17 05:17:55;;;;;;;11.97;5.10;;;;;;;8.13;73.21;101601.75;5100511;28;20391;-69
2022/01/17 05:20:21;;;;;;;15.20;5.40;;;;;;;7.90;72.87;101585.38;5100446;28;20425;-70
2022/01/17 05:22:46;;;;;;;17.00;4.50;;;;;;;8.29;72.55;101584.94;5100404;28;20414;-69
2022/01/17 05:25:12;;;;;;;18.70;5.40;;;;;;;7.95;72.83;101588.16;5100409;28;20523;-69
2022/01/17 05:27:37;;;;;;;11.03;4.33;;;;;;;7.94;73.24;101589.84;5100861;28;20156;-69
2022/01/17 05:30:15;;;;;;;14.27;3.90;;;;;;;8.07;73.29;101607.63;5082916;28;20175;-70
2022/01/17 05:32:41;;;;;;;20.60;5.83;;;;;;;8.47;71.87;101610.72;5099253;28;20176;-69
2022/01/17 05:35:08;;;;;;;19.20;5.27;;;;;;;8.56;71.78;101617.91;5100161;28;20519;-70
2022/01/17 05:37:33;;;;;;;14.00;4.70;;;;;;;8.22;72.43;101614.16;5099986;28;20426;-69
2022/01/17 05:39:59;;;;;;;16.47;6.40;;;;;;;8.26;72.07;101593.53;5100589;28;20601;-68
2022/01/17 05:42:24;;;;;;;13.83;5.23;;;;;;;8.29;73.17;101599.66;5082365;28;20168;-70
2022/01/17 05:44:50;;;;;;;19.33;5.67;;;;;;;7.74;75.21;101604.78;5100026;28;20179;-69
2022/01/17 05:47:15;;;;;;;12.00;4.90;;;;;;;8.29;72.54;101617.84;5100315;28;20572;-70
2022/01/17 05:49:42;;;;;;;17.10;5.90;;;;;;;8.33;73.41;101615.41;5100037;28;20247;-70
2022/01/17 05:52:07;;;;;;;14.63;5.40;;;;;;;8.65;73.14;101615.59;5099609;28;20220;-69
2022/01/17 05:54:33;;;;;;;17.77;6.00;;;;;;;8.65;73.21;101613.00;5082556;28;20388;-70
2022/01/17 05:56:58;;;;;;;14.23;5.20;;;;;;;8.34;72.66;101596.38;5099877;28;20179;-70
2022/01/17 05:59:23;;;;;;;19.00;5.77;;;;;;;8.45;72.66;101588.06;5099749;28;20172;-69
2022/01/17 06:01:49;;;;;;;12.80;4.80;;;;;;;8.37;73.50;101598.19;5100208;28;20554;-70
2022/01/17 06:04:14;;;;;;;15.57;6.13;;;;;;;8.40;73.96;101586.19;5099465;28;20172;-70
2022/01/17 06:06:39;;;;;;;23.43;5.70;;;;;;;8.34;74.71;101583.41;5099332;28;20537;-70
2022/01/17 06:09:05;;;;;;;17.07;5.60;;;;;;;8.60;74.41;101601.56;5100174;28;20276;-70
2022/01/17 06:11:33;;;;;;;17.80;5.00;;;;;;;8.04;76.23;101607.53;5099502;28;20259;-69
2022/01/17 06:13:59;;;;;;;12.47;5.63;;;;;;;8.30;75.33;101622.22;5099224;28;20171;-71
2022/01/17 06:16:25;;;;;;;16.33;5.83;;;;;;;8.36;75.31;101620.72;5099587;28;20416;-70
2022/01/17 06:18:50;;;;;;;17.83;5.63;;;;;;;8.27;75.01;101616.09;5099402;28;20414;-71
2022/01/17 06:21:15;;;;;;;15.97;5.23;;;;;;;8.61;73.51;101608.53;5099324;28;20172;-69
2022/01/17 06:23:40;;;;;;;17.83;5.53;;;;;;;8.65;73.54;101614.72;5099607;28;20172;-69
2022/01/17 06:26:06;;;;;;;13.80;4.60;;;;;;;7.99;75.38;101583.09;5099268;28;20175;-69
2022/01/17 06:28:31;;;;;;;17.20;5.63;;;;;;;8.67;74.52;101568.84;5099587;28;20179;-69
2022/01/17 06:30:56;;;;;;;13.20;5.13;;;;;;;8.51;74.28;101577.88;5100210;28;20203;-70
2022/01/17 06:33:22;;;;;;;19.93;6.67;;;;;;;8.45;76.01;101570.78;5099150;28;20176;-70
2022/01/17 06:35:47;;;;;;;20.60;5.27;;;;;;;8.46;76.76;101582.03;5098917;28;20231;-69
2022/01/17 06:38:12;;;;;;;19.80;7.37;;;;;;;8.83;76.32;101571.06;5099838;28;20236;-69
2022/01/17 06:40:38;;;;;;;18.50;6.17;;;;;;;8.27;77.69;101573.66;5099096;28;20176;-69
2022/01/17 06:43:06;;;;;;;20.67;5.80;;;;;;;8.46;77.67;101592.44;5098726;28;20192;-69
2022/01/17 06:45:31;;;;;;;16.37;5.00;;;;;;;8.23;77.88;101603.81;5099345;28;20153;-69
2022/01/17 06:47:56;;;;;;;22.33;7.27;;;;;;;8.47;77.58;101623.69;5098729;28;20389;-71
2022/01/17 06:50:22;;;;;;;17.30;6.33;;;;;;;8.46;77.78;101624.53;5098652;28;20176;-70
2022/01/17 06:52:47;;;;;;;16.47;5.40;;;;;;;8.43;78.25;101651.25;5098312;28;20578;-69
2022/01/17 06:55:12;;;;;;;21.20;7.00;;;;;;;8.54;78.30;101658.56;5098701;28;20200;-69
2022/01/17 06:57:38;;;;;;;19.80;6.00;;;;;;;8.68;76.96;101670.28;5099000;28;20164;-69
2022/01/17 07:00:08;;;;;;;20.13;6.43;;;;;;;8.11;80.14;101685.66;5098666;28;20172;-69
2022/01/17 07:02:33;;;;;;;18.33;5.90;;;;;;;8.47;78.79;101679.97;5098413;28;20263;-69
2022/01/17 07:04:59;;;;;;;13.13;6.07;;;;;;;8.76;78.35;101688.72;5099057;28;20858;-70
2022/01/17 07:07:24;;;;;;;23.70;6.80;;;;;;;8.89;77.54;101677.00;5098584;28;20168;-70
2022/01/17 07:09:49;;;;;;;23.03;6.70;;;;;;;8.89;77.52;101658.78;5080761;28;20168;-69
2022/01/17 07:12:15;;;;;;;25.80;7.47;;;;;;;8.68;78.07;101639.09;5099357;28;20168;-70
2022/01/17 07:14:42;;;;;;;24.13;6.57;;;;;;;8.49;79.06;101610.75;5098195;28;20276;-70
2022/01/17 07:17:10;;;;;;;14.83;5.20;;;;;;;8.47;78.66;101597.72;5098399;28;20221;-69
2022/01/17 07:19:36;;;;;;;17.97;6.00;;;;;;;8.38;79.43;101613.84;5098604;28;20402;-69
2022/01/17 07:22:03;;;;;;;20.10;5.87;;;;;;;8.46;78.79;101621.03;5098024;28;20397;-70
2022/01/17 07:24:28;;;;;;;16.87;5.93;;;;;;;8.69;78.98;101606.19;5098141;28;20468;-70
2022/01/17 07:26:53;;;;;;;22.77;6.57;;;;;;;8.59;79.08;101600.69;5098640;28;20430;-70
2022/01/17 07:29:19;;;;;;;19.13;5.80;;;;;;;8.25;80.64;101604.78;5098342;28;20179;-69
2022/01/17 07:31:44;;;;;;;14.53;5.60;;;;;;;8.83;78.78;101622.22;5098354;28;20433;-69
2022/01/17 07:34:09;;;;;;;21.60;5.93;;;;;;;8.91;78.64;101636.31;5098401;28;20175;-69
2022/01/17 07:36:35;;;;;;;18.00;5.43;;;;;;;8.78;79.36;101632.44;5098078;28;20251;-69
2022/01/17 07:39:00;;;;;;;23.10;6.47;;;;;;;8.92;78.83;101627.69;5098103;28;20177;-69
2022/01/17 07:41:26;;;;;;;23.63;6.50;;;;;;;8.92;79.18;101623.38;5081034;28;20172;-69
2022/01/17 07:43:53;;;;;;;21.77;6.50;;;;;;;8.40;80.02;101626.88;5098359;28;20160;-69
2022/01/17 07:46:24;;;;;;;18.47;5.77;;;;;;;8.96;77.81;101619.16;5099637;28;20683;-72
2022/01/17 07:49:09;;;;;;;9.80;4.83;;;;;;;8.47;81.00;101617.59;5100669;28;20708;-69
2022/01/17 07:51:35;;;;;;;13.30;5.80;;;;;;;9.03;79.56;101622.81;5099249;28;20421;-69
2022/01/17 07:54:00;;;;;;;18.37;5.63;;;;;;;9.05;79.72;101640.25;5098842;28;20560;-70
2022/01/17 07:56:26;;;;;;;19.50;5.93;;;;;;;8.90;79.89;101644.97;5101060;28;20432;-70
2022/01/17 07:58:52;;;;;;;14.03;5.20;;;;;;;8.76;80.29;101648.00;5102086;28;20544;-70
2022/01/17 08:01:17;;;;;;;24.13;6.60;;;;;;;8.78;80.83;101648.03;5102643;28;20386;-70
2022/01/17 08:03:42;;;;;;;17.00;7.33;;;;;;;8.83;80.93;101635.22;5084237;28;20605;-70
2022/01/17 08:06:08;;;;;;;21.30;6.70;;;;;;;8.92;80.61;101635.50;5102131;28;20447;-70
2022/01/17 08:08:34;;;;;;;13.67;5.20;;;;;;;8.58;82.20;101655.22;5102261;28;20164;-70
2022/01/17 08:10:59;;;;;;;15.97;6.13;;;;;;;8.90;82.15;101644.97;5101811;28;20385;-70
2022/01/17 08:13:24;;;;;;;17.83;5.27;;;;;;;8.92;82.54;101651.09;5101874;28;20601;-70
2022/01/17 08:15:50;;;;;;;22.73;6.13;;;;;;;8.68;82.95;101665.06;5084431;28;20341;-69
2022/01/17 08:18:15;;;;;;;18.63;6.20;;;;;;;9.05;81.64;101653.25;5101669;28;20179;-69
2022/01/17 08:20:41;;;;;;;16.77;5.70;;;;;;;8.52;82.57;101642.03;5101639;28;20218;-70
2022/01/17 08:23:07;;;;;;;22.50;7.50;;;;;;;8.77;81.25;101654.97;5101828;28;20168;-69
2022/01/17 08:25:33;;;;;;;21.73;6.17;;;;;;;9.29;80.84;101664.34;5101704;28;20844;-70
2022/01/17 08:27:59;;;;;;;15.60;5.90;;;;;;;8.87;79.69;101671.75;5101386;28;20385;-70
2022/01/17 08:30:24;;;;;;;16.20;5.40;;;;;;;9.32;78.28;101661.81;5101894;28;20761;-70
2022/01/17 08:32:50;;;;;;;21.37;6.30;;;;;;;9.55;78.66;101681.63;5101053;28;20183;-71
2022/01/17 08:35:16;;;;;;;15.07;5.57;;;;;;;9.20;78.74;101675.34;5101414;28;20200;-70
2022/01/17 08:37:41;;;;;;;21.47;5.80;;;;;;;9.34;78.65;101681.84;5101739;28;20377;-69
2022/01/17 08:40:08;;;;;;;21.57;5.80;;;;;;;9.23;78.42;101680.66;5101217;28;20381;-70
2022/01/17 08:42:37;;;;;;;20.17;5.80;;;;;;;9.41;77.70;101672.50;5101236;28;20250;-70
2022/01/17 08:45:04;;;;;;;21.23;6.40;;;;;;;9.64;77.21;101660.16;5101491;28;20554;-70
2022/01/17 08:47:29;;;;;;;16.90;5.73;;;;;;;9.55;76.43;101675.50;5083520;28;20499;-69
2022/01/17 08:49:55;;;;;;;16.53;5.90;;;;;;;10.07;76.07;101681.31;5101150;28;20481;-70
2022/01/17 08:52:20;;;;;;;17.20;4.93;;;;;;;9.43;77.93;101676.03;5100823;28;20608;-71
2022/01/17 08:54:46;;;;;;;17.27;4.90;;;;;;;9.54;79.50;101694.56;5101174;28;20161;-72
2022/01/17 08:57:11;;;;;;;19.17;5.67;;;;;;;8.99;80.15;101694.66;5101179;28;20188;-72
2022/01/17 08:59:36;;;;;;;10.10;5.03;;;;;;;9.00;80.62;101706.84;5100936;28;20455;-70
2022/01/17 09:02:02;;;;;;;13.77;5.80;;;;;;;9.37;78.82;101709.69;5111344;28;20180;-69
2022/01/17 09:04:28;;;;;;;20.87;6.93;;;;;;;9.49;79.36;101699.66;5103395;28;20210;-69
2022/01/17 09:06:53;;;;;;;21.90;6.80;;;;;;;9.65;76.91;101706.19;5119683;28;20192;-70
2022/01/17 09:09:19;;;;;;;18.00;6.10;;;;;;;9.52;77.18;101711.88;5114976;28;20457;-70
2022/01/17 09:11:44;;;;;;;25.80;7.30;;;;;;;9.55;77.41;101715.47;5101176;28;20255;-69
2022/01/17 09:14:09;;;;;;;20.20;6.23;;;;;;;9.56;76.26;101724.13;5100344;28;20196;-71
2022/01/17 09:16:35;;;;;;;23.00;6.00;;;;;;;9.50;77.69;101729.16;5100512;28;20208;-70
2022/01/17 09:19:02;;;;;;;23.87;6.63;;;;;;;9.96;76.87;101727.91;5116721;28;20171;-73
2022/01/17 09:21:27;;;;;;;19.77;6.57;;;;;;;9.45;77.98;101734.22;5120941;28;20571;-72
2022/01/17 09:23:57;;;;;;;18.90;7.80;;;;;;;9.57;78.52;101749.34;5121158;28;20475;-71
2022/01/17 09:26:25;;;;;;;23.87;6.37;;;;;;;9.08;79.44;101775.59;5123223;28;20168;-72
2022/01/17 09:28:51;;;;;;;20.43;6.57;;;;;;;9.23;78.91;101775.19;5105106;28;20421;-71
2022/01/17 09:31:16;;;;;;;21.90;6.80;;;;;;;9.39;77.70;101779.19;5121230;28;20391;-72
2022/01/17 09:33:42;;;;;;;17.67;5.80;;;;;;;9.17;78.30;101781.94;5121118;28;20184;-71
2022/01/17 09:36:07;;;;;;;21.20;6.50;;;;;;;9.30;78.13;101785.81;5104234;28;20211;-72
2022/01/17 09:38:35;;;;;;;20.53;6.70;;;;;;;9.87;75.63;101787.53;5100442;28;20172;-72
2022/01/17 09:41:01;;;;;;;22.00;7.00;;;;;;;9.66;74.84;101804.31;5082796;28;20175;-73
2022/01/17 09:43:27;;;;;;;19.60;5.80;;;;;;;9.46;75.25;101828.81;5099839;28;20763;-69
2022/01/17 09:45:52;;;;;;;15.83;5.27;;;;;;;9.07;76.29;101820.63;5082326;28;20411;-73
2022/01/17 09:48:21;;;;;;;11.63;6.23;;;;;;;9.28;74.91;101829.97;5100465;28;20164;-73
2022/01/17 09:51:00;;;;;;;22.00;5.60;;;;;;;9.21;74.55;101843.63;5099816;28;20180;-73
2022/01/17 09:53:28;;;;;;;13.20;5.50;;;;;;;9.40;73.44;101825.19;5078602;28;20441;-68
2022/01/17 09:55:55;;;;;;;20.57;5.87;;;;;;;9.56;71.95;101836.09;5079224;28;20466;-69
2022/01/17 09:58:20;;;;;;;20.63;5.57;;;;;;;9.54;71.70;101836.03;5078600;28;20412;-67
2022/01/17 10:00:45;;;;;;;11.03;5.10;;;;;;;9.27;71.73;101851.66;5079816;28;20390;-69
2022/01/17 10:03:17;;;;;;;11.70;4.77;;;;;;;9.26;69.44;101853.34;5078420;28;20183;-68
2022/01/17 10:05:42;;;;;;;8.87;4.67;;;;;;;9.52;67.83;101842.91;5079309;28;20184;-68
2022/01/17 10:08:15;;;;;;;11.57;5.17;;;;;;;9.64;67.68;101850.22;5078931;28;20394;-69
2022/01/17 10:10:57;;;;;;;10.13;4.47;;;;;;;9.23;68.16;101855.00;5098568;28;20184;-70
2022/01/17 10:13:31;;;;;;;9.50;3.73;;;;;;;9.36;68.98;101861.47;5098759;28;20399;-72
2022/01/17 10:16:02;;;;;;;11.33;4.10;;;;;;;9.92;66.00;101866.72;5098652;28;20435;-72
2022/01/17 10:18:32;;;;;;;8.40;4.17;;;;;;;11.06;63.59;101869.03;5099305;28;20522;-72
2022/01/17 10:21:04;;;;;;;8.70;3.53;;;;;;;11.02;61.47;101867.19;5099392;28;20497;-71
2022/01/17 10:23:48;;;;;;;12.07;3.40;;;;;;;11.16;60.65;101873.63;5098142;28;20817;-71
2022/01/17 10:26:32;;;;;;;8.83;3.60;;;;;;;11.76;57.26;101885.56;5099253;28;20512;-71
2022/01/17 10:29:27;;;;;;;11.87;4.07;;;;;;;13.20;54.45;101884.97;5099088;28;20717;-71
2022/01/17 10:34:57;;;;;;;7.53;3.50;;;;;;;13.17;51.97;101870.09;5098894;28;20497;-71
2022/01/17 10:37:24;;;;;;;11.00;3.83;;;;;;;11.75;54.77;101899.44;5099002;28;20831;-70
2022/01/17 10:40:00;;;;;;;7.83;3.60;;;;;;;10.86;58.08;101918.09;5099154;28;20410;-70
2022/01/17 10:42:47;;;;;;;8.80;3.70;;;;;;;10.73;58.83;101930.78;5098491;28;20491;-72
2022/01/17 10:45:24;;;;;;;9.90;4.20;;;;;;;10.48;59.21;101910.94;5098978;28;20384;-71
2022/01/17 10:47:52;;;;;;;9.37;3.93;;;;;;;10.29;59.74;101920.78;5098833;28;20504;-70
2022/01/17 10:50:23;;;;;;;13.00;5.00;;;;;;;10.54;60.15;101918.97;5098750;28;20493;-71
2022/01/17 10:53:01;;;;;;;8.40;4.00;;;;;;;9.61;61.03;101934.31;5098709;28;20465;-73
2022/01/17 10:55:37;;;;;;;9.40;5.43;;;;;;;9.77;61.42;101938.31;5099123;28;20432;-71
2022/01/17 10:58:08;;;;;;;9.40;4.10;;;;;;;9.65;60.94;101953.53;5099712;28;20648;-70
2022/01/17 11:00:37;;;;;;;12.10;4.50;;;;;;;9.08;62.59;101956.81;5098523;28;20415;-71
2022/01/17 11:03:06;;;;;;;10.00;4.20;;;;;;;9.82;60.71;101963.63;5098546;28;20430;-71
2022/01/17 11:05:32;;;;;;;12.27;4.17;;;;;;;10.29;59.66;101974.66;5098675;28;20416;-70
2022/01/17 11:08:01;;;;;;;7.40;3.77;;;;;;;10.16;60.14;101967.28;5098867;28;20453;-70
2022/01/17 11:10:29;;;;;;;11.93;4.60;;;;;;;9.79;62.02;101980.03;5080824;28;20667;-69
2022/01/17 11:12:56;;;;;;;12.37;4.63;;;;;;;8.56;67.03;101997.38;5078179;28;20692;-70
2022/01/17 11:15:23;;;;;;;11.57;4.50;;;;;;;8.02;70.40;102008.22;5078628;28;20425;-69
2022/01/17 11:17:51;;;;;;;13.20;4.60;;;;;;;7.93;70.47;102007.03;5078371;28;20697;-70
2022/01/17 11:20:20;;;;;;;8.43;4.17;;;;;;;7.89;72.22;102027.63;5078104;28;20791;-70
2022/01/17 11:22:47;;;;;;;10.33;4.40;;;;;;;7.45;73.99;102039.59;5078021;28;20411;-70
2022/01/17 11:25:24;;;;;;;13.40;4.33;;;;;;;8.08;72.50;102045.72;5078076;28;20408;-70
2022/01/17 11:27:49;;;;;;;14.40;4.30;;;;;;;8.10;72.32;102037.97;5077977;28;20422;-73
2022/01/17 11:30:16;;;;;;;7.90;4.07;;;;;;;7.73;71.00;102036.47;5077679;28;20439;-70
2022/01/17 11:32:45;;;;;;;11.17;3.63;;;;;;;8.36;69.52;102040.75;5078295;28;20447;-69
2022/01/17 11:35:11;;;;;;;11.93;4.10;;;;;;;8.37;69.05;102026.94;5078900;28;20413;-70
2022/01/17 11:37:39;;;;;;;6.90;4.00;;;;;;;8.38;67.64;102029.59;5078209;28;20405;-72
2022/01/17 11:40:07;;;;;;;6.63;3.77;;;;;;;7.86;66.11;102048.25;5078069;28;20172;-72